Tampa, FL

10:30 PM EDT on September 01, 2015 (GMT -0400)
West Park | | Change Station
CLOSE
Current Station
Personal Weather Station
Location: Tampa, FL
Elevation: 46 ft
Nearby Weather Stations

Elev 46 ft 28.00 °N, 82.52 °W | Updated 20 seconds ago

Overcast
Overcast
81.9 °F
Feels Like 89 °F
N
0.0
Wind Variable Wind from NW
Gusts 0.0 mph

Today
High -- | Low -- °F
--% Chance of Precip.
Yesterday
High -- | Low -- °F
Precip. -- in
7:08 AM 7:51 PM
Waning Gibbous, 84% visible
Pressure 30.06 in
Visibility 10.0 miles
Clouds Overcast 28000 ft
Heat Index 89 °F
Dew Point 76 °F
Humidity 82%
Rainfall 1.15 in
Snow Depth Not available.
UV 0 out of 12
Pollen 3.10 out of 12
Air Quality Not available.
Flu Activity Not available.
METAR KTPA 020153Z 14003KT 10SM OVC280 28/24 A3007 RMK AO2 SLP180 T02830239
Pressure 30.06 in
Visibility 10.0 miles
Clouds Overcast 28000 ft
Heat Index 89 °F
Dew Point 76 °F
Humidity 82%
Rainfall 1.15 in
Snow Depth Not available.
UV 0 out of 12
Pollen 3.10 out of 12
Air Quality Not available.
Flu Activity Not available.
METAR KTPA 020153Z 14003KT 10SM OVC280 28/24 A3007 RMK AO2 SLP180 T02830239

10-Day Weather Forecast

×

Almanac

Astronomy

Sep. 01, 2015 Rise Set
Actual Time
Civil Twilight
Nautical Twilight
Astronomical Twilight
Moon
Length of Visible Light
Length of Day
Tomorrow will be .
, % of the Moon is Illuminated

Today's Extremes

State Highs State Lows

Community

WunderPhotos

Upload Photos

1,851,681 photos uploaded!

WunderBlogs® & News

Nearby

Air Quality

  Air Quality AQ Index Pollutant
Not available.

Snow Depth

Station Depth Elevation

Earthquake Activity

City Distance Mag. Time & Date
Minimum magnitude displayed is 2.5.

Coastal Water Temperatures

Place Temperature

Stations

Nearby Weather Stations

Station Location Temp. Windchill Dew Point Humidity Wind Precip. Elev Updated Type